Time;durP1;ratioP1;P1;durP2;ratioP2;P2;SDS_P1;SDS_P2;PMS_P1;PMS_P2;Temp;Humidity;BMP_temperature;BMP_pressure;BME280_temperature;BME280_humidity;BME280_pressure;Samples;Min_cycle;Max_cycle;Signal;HPM_P1;HPM_P2
2021/04/16 00:00:48;;;;;;;0.20;0.20;;;;;;;4.24;50.23;98998.97;5113052;28;20032;-59
2021/04/16 00:03:14;;;;;;;0.10;0.10;;;;;;;4.20;50.27;99015.66;5113223;28;20131;-58
2021/04/16 00:05:41;;;;;;;0.20;0.20;;;;;;;4.19;50.35;99007.72;5113023;28;20024;-59
2021/04/16 00:08:18;;;;;;;0.20;0.20;;;;;;;4.23;50.15;99010.91;5113036;28;20035;-58
2021/04/16 00:10:46;;;;;;;0.20;0.20;;;;;;;4.25;50.02;99016.97;5113260;28;20036;-59
2021/04/16 00:13:15;;;;;;;0.30;0.30;;;;;;;4.24;50.26;99021.59;5095051;28;20035;-60
2021/04/16 00:15:42;;;;;;;0.20;0.20;;;;;;;4.24;50.28;99026.16;5112994;28;20023;-60
2021/04/16 00:18:10;;;;;;;0.20;0.20;;;;;;;4.22;50.29;99034.50;5112959;28;20072;-58
2021/04/16 00:20:37;;;;;;;0.43;0.43;;;;;;;4.18;50.42;99028.63;5113020;28;20036;-59
2021/04/16 00:23:03;;;;;;;0.20;0.20;;;;;;;4.21;50.29;99030.97;5112768;28;20193;-59
2021/04/16 00:25:31;;;;;;;0.20;0.20;;;;;;;4.23;50.13;99029.94;5113109;28;20138;-59
2021/04/16 00:27:57;;;;;;;0.20;0.20;;;;;;;4.24;50.01;99034.31;5113201;28;20036;-59
2021/04/16 00:30:27;;;;;;;0.20;0.20;;;;;;;4.25;50.17;99041.44;5113015;28;20059;-60
2021/04/16 00:32:53;;;;;;;0.20;0.20;;;;;;;4.20;50.04;99029.25;5112766;28;20054;-59
2021/04/16 00:35:19;;;;;;;0.20;0.20;;;;;;;4.18;50.23;99034.06;5112933;28;20028;-60
2021/04/16 00:37:45;;;;;;;0.20;0.20;;;;;;;4.13;50.43;99031.03;5090861;28;20040;-59
2021/04/16 00:40:23;;;;;;;0.20;0.20;;;;;;;4.10;50.33;99039.56;5092625;28;20089;-61
2021/04/16 00:42:54;;;;;;;0.20;0.20;;;;;;;4.08;50.36;99049.81;5092779;28;20485;-60
2021/04/16 00:45:22;;;;;;;0.20;0.20;;;;;;;4.04;50.32;99043.03;5092332;28;20467;-60
2021/04/16 00:47:49;;;;;;;0.20;0.20;;;;;;;4.02;50.29;99045.94;5092449;28;20031;-59
2021/04/16 00:50:20;;;;;;;0.20;0.20;;;;;;;3.99;50.43;99050.91;5092791;28;20032;-59
2021/04/16 00:52:47;;;;;;;0.20;0.20;;;;;;;3.97;50.33;99058.41;5092829;28;20496;-59
2021/04/16 00:55:13;;;;;;;0.20;0.20;;;;;;;3.89;50.44;99056.63;5092133;28;20582;-58
2021/04/16 00:57:39;;;;;;;0.20;0.20;;;;;;;3.88;50.52;99051.38;5092146;28;20477;-58
2021/04/16 01:00:07;;;;;;;0.10;0.10;;;;;;;3.92;50.43;99060.84;5092408;28;20110;-60
2021/04/16 01:02:33;;;;;;;0.20;0.20;;;;;;;3.93;50.35;99059.78;5092205;28;20050;-58
2021/04/16 01:04:59;;;;;;;0.20;0.20;;;;;;;3.96;50.42;99067.56;5090720;28;20036;-58
2021/04/16 01:07:25;;;;;;;0.20;0.20;;;;;;;3.94;50.28;99069.66;5092410;28;20028;-60
2021/04/16 01:09:51;;;;;;;0.20;0.20;;;;;;;3.97;50.31;99080.13;5092225;28;20028;-59
2021/04/16 01:12:18;;;;;;;0.20;0.20;;;;;;;4.06;50.27;99075.47;5096271;28;20043;-59
2021/04/16 01:14:46;;;;;;;0.20;0.20;;;;;;;4.09;49.91;99078.63;5094461;28;20063;-61
2021/04/16 01:17:14;;;;;;;0.20;0.20;;;;;;;4.11;50.10;99082.03;5095636;28;20118;-57
2021/04/16 01:19:55;;;;;;;0.20;0.20;;;;;;;4.15;49.99;99088.78;5095551;28;20090;-60
2021/04/16 01:22:57;;;;;;;0.10;0.10;;;;;;;4.15;49.94;99087.91;5096016;28;20068;-58
2021/04/16 01:25:24;;;;;;;0.20;0.20;;;;;;;4.12;50.20;99093.72;5096313;28;20048;-58
2021/04/16 01:27:51;;;;;;;0.17;0.17;;;;;;;4.10;50.07;99085.78;5095742;28;20494;-58
2021/04/16 01:30:26;;;;;;;0.20;0.20;;;;;;;4.08;50.18;99085.13;5095943;28;20027;-60
2021/04/16 01:32:52;;;;;;;0.20;0.20;;;;;;;4.01;50.18;99076.84;5095885;28;20040;-59
2021/04/16 01:35:33;;;;;;;0.20;0.20;;;;;;;3.97;50.27;99085.56;5095454;28;20464;-61
2021/04/16 01:38:03;;;;;;;0.20;0.20;;;;;;;3.95;50.29;99083.03;5112957;28;20097;-58
2021/04/16 01:40:28;;;;;;;0.20;0.20;;;;;;;3.95;50.26;99093.06;5115829;28;20067;-58
2021/04/16 01:42:54;;;;;;;0.20;0.20;;;;;;;3.96;50.10;99105.59;5116015;28;20445;-59
2021/04/16 01:45:24;;;;;;;0.20;0.20;;;;;;;3.97;49.98;99088.28;5115718;28;20118;-58
2021/04/16 01:47:55;;;;;;;0.20;0.20;;;;;;;3.99;49.85;99095.22;5115976;28;20031;-59
2021/04/16 01:50:22;;;;;;;0.20;0.20;;;;;;;4.06;49.50;99091.78;5115508;28;20557;-58
2021/04/16 01:52:48;;;;;;;0.20;0.20;;;;;;;4.07;49.53;99099.72;5095290;28;20419;-58
2021/04/16 01:55:14;;;;;;;0.13;0.13;;;;;;;4.10;49.47;99102.06;5106878;28;20080;-60
2021/04/16 01:57:40;;;;;;;0.20;0.20;;;;;;;4.15;49.16;99099.66;5109085;28;20023;-59
2021/04/16 02:00:26;;;;;;;0.20;0.20;;;;;;;4.25;49.00;99109.41;5113678;28;20020;-60
2021/04/16 02:02:52;;;;;;;0.20;0.20;;;;;;;4.33;48.95;99112.03;5089157;28;20024;-59
2021/04/16 02:05:19;;;;;;;0.20;0.20;;;;;;;4.47;48.65;99122.06;5099872;28;20527;-61
2021/04/16 02:07:44;;;;;;;0.20;0.20;;;;;;;4.69;48.14;99122.97;5104034;28;20073;-66
2021/04/16 02:10:11;;;;;;;0.20;0.20;;;;;;;4.83;47.85;99117.69;5109920;28;20389;-61
2021/04/16 02:12:38;;;;;;;0.20;0.20;;;;;;;4.82;47.98;99119.59;5113114;28;20027;-59
2021/04/16 02:15:05;;;;;;;0.20;0.20;;;;;;;4.72;48.34;99113.59;5108116;28;20034;-58
2021/04/16 02:17:31;;;;;;;0.20;0.20;;;;;;;4.65;48.20;99127.13;5113144;28;20471;-58
2021/04/16 02:20:02;;;;;;;0.20;0.20;;;;;;;4.64;48.38;99130.00;5106377;28;20030;-59
2021/04/16 02:22:28;;;;;;;0.20;0.20;;;;;;;4.59;48.33;99127.03;5112913;28;20050;-59
2021/04/16 02:24:54;;;;;;;0.20;0.20;;;;;;;4.62;48.48;99124.75;5113098;28;20028;-60
2021/04/16 02:27:23;;;;;;;0.10;0.10;;;;;;;4.80;48.13;99134.41;5113123;28;20088;-59
2021/04/16 02:29:49;;;;;;;0.20;0.20;;;;;;;5.36;46.89;99129.22;5111769;28;20023;-60
2021/04/16 02:32:16;;;;;;;0.20;0.20;;;;;;;6.11;45.54;99137.91;5103086;28;20413;-59
2021/04/16 02:34:42;;;;;;;0.20;0.20;;;;;;;7.41;43.53;99141.91;5102330;28;20492;-59
2021/04/16 02:37:11;;;;;;;0.20;0.20;;;;;;;8.56;41.67;99139.84;5095521;28;20050;-58
2021/04/16 02:39:39;;;;;;;0.20;0.20;;;;;;;9.35;40.80;99142.53;5091491;28;20035;-60
2021/04/16 02:42:05;;;;;;;0.20;0.20;;;;;;;8.71;41.98;99139.59;5084072;28;20035;-60
2021/04/16 02:44:31;;;;;;;0.20;0.20;;;;;;;7.80;44.12;99146.63;5076214;28;20111;-59
2021/04/16 02:46:57;;;;;;;0.20;0.20;;;;;;;7.72;44.69;99142.16;5073865;28;20116;-59
2021/04/16 02:49:24;;;;;;;0.20;0.20;;;;;;;8.13;43.94;99153.16;5073752;28;20497;-59
2021/04/16 02:51:50;;;;;;;0.20;0.20;;;;;;;9.34;42.13;99149.06;5078675;28;20073;-59
2021/04/16 02:54:17;;;;;;;0.20;0.20;;;;;;;10.97;39.85;99132.75;5078790;28;20029;-59
2021/04/16 02:56:43;;;;;;;0.15;0.15;;;;;;;12.32;38.09;99150.94;5073789;28;20020;-59
2021/04/16 02:59:09;;;;;;;0.20;0.20;;;;;;;13.57;36.75;99147.91;5073631;28;20032;-59
2021/04/16 03:01:35;;;;;;;0.20;0.20;;;;;;;14.71;35.40;99162.59;5073650;28;20033;-58
2021/04/16 03:04:01;;;;;;;0.10;0.10;;;;;;;14.25;36.68;99156.28;5073310;28;20054;-60
2021/04/16 03:06:27;;;;;;;0.10;0.10;;;;;;;12.65;39.68;99149.50;5074171;28;20034;-60
2021/04/16 03:08:58;;;;;;;0.10;0.10;;;;;;;11.12;42.38;99157.09;5093574;28;20039;-59
2021/04/16 03:11:26;;;;;;;0.20;0.20;;;;;;;10.13;44.17;99166.06;5074787;28;20064;-60
2021/04/16 03:13:52;;;;;;;0.10;0.10;;;;;;;9.50;45.21;99168.81;5074816;28;20515;-61
2021/04/16 03:16:19;;;;;;;0.20;0.20;;;;;;;11.32;41.80;99167.84;5093557;28;20038;-60
2021/04/16 03:18:45;;;;;;;0.20;0.20;;;;;;;13.28;38.62;99170.75;5108869;28;20027;-60
2021/04/16 03:21:11;;;;;;;0.20;0.20;;;;;;;14.75;36.74;99168.44;5108663;28;20039;-60
2021/04/16 03:23:37;;;;;;;0.17;0.17;;;;;;;15.72;35.43;99164.19;5092600;28;20036;-61
2021/04/16 03:26:03;;;;;;;0.10;0.10;;;;;;;16.35;35.21;99171.16;5084136;28;20055;-59
2021/04/16 03:28:29;;;;;;;0.10;0.10;;;;;;;16.48;35.22;99194.84;5072791;28;20024;-59
2021/04/16 03:30:55;;;;;;;0.10;0.10;;;;;;;16.54;35.74;99186.28;5055012;28;20032;-59
2021/04/16 03:33:20;;;;;;;0.10;0.10;;;;;;;16.71;35.49;99180.59;5079064;28;20111;-59
2021/04/16 03:35:47;;;;;;;0.10;0.10;;;;;;;16.78;35.98;99175.66;5074919;28;20028;-58
2021/04/16 03:38:13;;;;;;;0.20;0.20;;;;;;;16.95;35.93;99180.22;5108480;28;20052;-60
2021/04/16 03:40:41;;;;;;;0.20;0.20;;;;;;;17.35;35.59;99195.44;5085858;28;20020;-59
2021/04/16 03:43:07;;;;;;;0.10;0.10;;;;;;;17.68;35.43;99182.22;5075949;28;20432;-59
2021/04/16 03:45:32;;;;;;;0.10;0.10;;;;;;;17.77;35.49;99186.16;5088719;28;20046;-60
2021/04/16 03:47:59;;;;;;;0.20;0.20;;;;;;;17.77;35.49;99194.50;5078920;28;20429;-59
2021/04/16 03:50:28;;;;;;;0.17;0.17;;;;;;;18.25;34.95;99194.34;5054881;28;20406;-60
2021/04/16 03:52:55;;;;;;;0.10;0.10;;;;;;;18.46;35.00;99211.88;5073312;28;20502;-59
2021/04/16 03:55:25;;;;;;;0.10;0.10;;;;;;;18.55;34.98;99187.97;5072594;28;20028;-60
2021/04/16 03:57:51;;;;;;;0.10;0.10;;;;;;;18.78;34.68;99194.06;5074752;28;20056;-60
2021/04/16 04:00:24;;;;;;;0.10;0.10;;;;;;;18.96;34.60;99191.84;5092816;28;20024;-60
2021/04/16 04:02:50;;;;;;;0.10;0.10;;;;;;;19.21;34.18;99205.72;5093050;28;20508;-59
2021/04/16 04:05:17;;;;;;;0.10;0.10;;;;;;;19.48;33.71;99187.81;5108184;28;20028;-59
2021/04/16 04:07:42;;;;;;;0.10;0.10;;;;;;;19.69;33.59;99199.69;5108280;28;20029;-59
2021/04/16 04:10:09;;;;;;;0.10;0.10;;;;;;;19.89;33.19;99198.78;5092884;28;20027;-59
2021/04/16 04:12:35;;;;;;;0.10;0.10;;;;;;;19.80;33.40;99199.66;5092360;28;20040;-59
2021/04/16 04:15:01;;;;;;;0.10;0.10;;;;;;;19.84;33.26;99204.38;5092672;28;20031;-59
2021/04/16 04:17:32;;;;;;;0.10;0.10;;;;;;;19.69;33.40;99205.25;5092900;28;20085;-60
2021/04/16 04:19:58;;;;;;;0.10;0.10;;;;;;;18.01;35.71;99207.91;5092672;28;20401;-61
2021/04/16 04:22:24;;;;;;;0.10;0.10;;;;;;;15.57;38.98;99216.56;5092441;28;20038;-58
2021/04/16 04:24:50;;;;;;;0.10;0.10;;;;;;;13.36;41.88;99232.16;5069065;28;20111;-59
2021/04/16 04:27:16;;;;;;;2.00;0.30;;;;;;;11.74;43.88;99231.16;5108042;28;20081;-59
2021/04/16 04:29:42;;;;;;;0.10;0.10;;;;;;;10.58;44.83;99238.38;5092834;28;20512;-58
2021/04/16 04:32:09;;;;;;;0.10;0.10;;;;;;;9.73;45.23;99243.16;5073720;28;20028;-59
2021/04/16 04:34:36;;;;;;;0.10;0.10;;;;;;;9.11;45.53;99242.72;5086294;28;20028;-60
2021/04/16 04:37:04;;;;;;;0.13;0.13;;;;;;;8.63;45.38;99240.28;5072029;28;20051;-59
2021/04/16 04:39:36;;;;;;;0.10;0.10;;;;;;;8.31;44.91;99254.56;5072212;28;20035;-59
2021/04/16 04:42:04;;;;;;;0.13;0.13;;;;;;;8.15;44.36;99254.97;5072550;28;20178;-58
2021/04/16 04:44:30;;;;;;;0.10;0.10;;;;;;;7.97;43.95;99258.31;5075222;28;20394;-59
2021/04/16 04:46:56;;;;;;;0.10;0.10;;;;;;;7.85;43.42;99258.09;5077463;28;20024;-59
2021/04/16 04:49:22;;;;;;;0.10;0.10;;;;;;;7.72;43.08;99262.44;5096501;28;20039;-59
2021/04/16 04:51:49;;;;;;;0.10;0.10;;;;;;;7.62;42.70;99267.44;5096484;28;20020;-59
2021/04/16 04:54:16;;;;;;;0.10;0.10;;;;;;;7.58;42.31;99252.50;5095151;28;20032;-59
2021/04/16 04:56:42;;;;;;;0.10;0.10;;;;;;;7.56;41.96;99261.97;5075553;28;20115;-59
2021/04/16 04:59:07;;;;;;;0.10;0.10;;;;;;;7.54;41.68;99263.00;5091766;28;20119;-59
2021/04/16 05:01:34;;;;;;;0.10;0.10;;;;;;;7.45;41.40;99257.91;5075739;28;20132;-59
2021/04/16 05:04:00;;;;;;;0.10;0.10;;;;;;;7.34;41.33;99249.25;5075680;28;20123;-58
2021/04/16 05:06:26;;;;;;;0.20;0.20;;;;;;;7.35;41.02;99264.63;5075451;28;20037;-59
2021/04/16 05:08:52;;;;;;;0.20;0.20;;;;;;;7.29;40.94;99270.88;5075754;28;20032;-60
2021/04/16 05:11:18;;;;;;;0.10;0.10;;;;;;;7.27;40.68;99267.50;5075746;28;20446;-59
2021/04/16 05:13:50;;;;;;;0.10;0.10;;;;;;;7.19;40.57;99254.88;5075678;28;20032;-59
2021/04/16 05:16:16;;;;;;;0.20;0.20;;;;;;;7.08;40.49;99273.69;5057675;28;20040;-59
2021/04/16 05:18:42;;;;;;;0.10;0.10;;;;;;;6.97;40.44;99273.22;5075241;28;20036;-59
2021/04/16 05:21:08;;;;;;;0.20;0.20;;;;;;;6.89;40.35;99270.66;5092328;28;20472;-59
2021/04/16 05:23:33;;;;;;;0.20;0.20;;;;;;;6.86;40.27;99276.53;5095601;28;20494;-60
2021/04/16 05:25:59;;;;;;;0.10;0.10;;;;;;;6.84;40.05;99273.97;5095493;28;20024;-59
2021/04/16 05:28:25;;;;;;;0.10;0.10;;;;;;;6.87;39.94;99282.81;5095986;28;20431;-59
2021/04/16 05:30:51;;;;;;;0.20;0.20;;;;;;;6.86;39.94;99287.44;5095909;28;20603;-60
2021/04/16 05:33:17;;;;;;;0.57;0.55;;;;;;;6.85;39.78;99285.75;5077287;28;20066;-59
2021/04/16 05:35:43;;;;;;;0.20;0.20;;;;;;;6.84;39.57;99278.59;5095263;28;20034;-62
2021/04/16 05:38:09;;;;;;;0.10;0.10;;;;;;;6.79;39.57;99281.94;5096262;28;20047;-60
2021/04/16 05:40:35;;;;;;;0.10;0.10;;;;;;;6.76;39.47;99289.69;5116053;28;20031;-59
2021/04/16 05:43:01;;;;;;;0.20;0.20;;;;;;;6.75;39.24;99282.53;5115760;28;20034;-59
2021/04/16 05:45:27;;;;;;;0.20;0.20;;;;;;;6.71;39.32;99286.69;5115693;28;20456;-59
2021/04/16 05:47:53;;;;;;;0.10;0.10;;;;;;;6.68;39.22;99295.28;5115777;28;20027;-60
2021/04/16 05:50:19;;;;;;;0.10;0.10;;;;;;;6.63;39.17;99293.97;5115894;28;20599;-59
2021/04/16 05:52:45;;;;;;;0.10;0.10;;;;;;;6.62;39.03;99281.34;5115563;28;20082;-59
2021/04/16 05:55:12;;;;;;;0.20;0.20;;;;;;;6.66;38.88;99296.31;5096635;28;20122;-63
2021/04/16 05:57:38;;;;;;;0.20;0.20;;;;;;;6.70;38.89;99285.84;5097519;28;20028;-59
2021/04/16 06:00:07;;;;;;;0.10;0.10;;;;;;;6.70;38.78;99299.50;5115438;28;20088;-61
2021/04/16 06:02:37;;;;;;;0.20;0.20;;;;;;;6.70;38.65;99310.41;5115309;28;20088;-59
2021/04/16 06:05:05;;;;;;;0.10;0.10;;;;;;;6.68;38.54;99303.47;5096587;28;20102;-60
2021/04/16 06:07:31;;;;;;;0.20;0.20;;;;;;;6.71;38.48;99297.59;5115463;28;20077;-59
2021/04/16 06:09:58;;;;;;;0.20;0.20;;;;;;;6.76;38.37;99287.78;5114908;28;20490;-60
2021/04/16 06:12:24;;;;;;;0.20;0.20;;;;;;;6.87;38.11;99299.19;5115083;28;20050;-59
2021/04/16 06:14:50;;;;;;;0.20;0.20;;;;;;;6.86;38.12;99309.28;5115040;28;20031;-59
2021/04/16 06:17:17;;;;;;;0.10;0.10;;;;;;;6.82;38.27;99297.06;5115100;28;20111;-59
2021/04/16 06:19:45;;;;;;;0.20;0.20;;;;;;;6.81;38.20;99311.75;5108901;28;20033;-62
2021/04/16 06:22:12;;;;;;;0.10;0.10;;;;;;;6.84;37.93;99308.63;5082225;28;20027;-59
2021/04/16 06:24:38;;;;;;;0.20;0.20;;;;;;;6.90;37.90;99298.78;5094698;28;20080;-60
2021/04/16 06:27:04;;;;;;;0.20;0.20;;;;;;;6.98;37.78;99290.47;5094506;28;20036;-59
2021/04/16 06:29:31;;;;;;;0.10;0.10;;;;;;;7.05;37.76;99291.31;5094558;28;20114;-60
2021/04/16 06:31:57;;;;;;;0.10;0.10;;;;;;;7.12;37.48;99299.56;5094460;28;20035;-60
2021/04/16 06:34:23;;;;;;;0.10;0.10;;;;;;;7.15;37.50;99297.28;5094298;28;20482;-59
2021/04/16 06:36:50;;;;;;;0.20;0.20;;;;;;;7.15;37.54;99293.72;5067159;28;20142;-59
2021/04/16 06:39:16;;;;;;;0.13;0.13;;;;;;;7.10;37.70;99294.31;5096269;28;20092;-59
2021/04/16 06:41:45;;;;;;;0.20;0.20;;;;;;;7.17;37.63;99288.91;5096220;28;20515;-58
2021/04/16 06:44:33;;;;;;;0.20;0.20;;;;;;;7.19;37.55;99292.25;5114923;28;20034;-59
2021/04/16 06:47:13;;;;;;;0.20;0.20;;;;;;;7.25;37.38;99279.69;5096980;28;20039;-59
2021/04/16 06:49:40;;;;;;;0.43;0.43;;;;;;;7.33;37.21;99295.91;5114411;28;20038;-60
2021/04/16 06:52:21;;;;;;;0.10;0.10;;;;;;;7.41;37.07;99293.00;5114396;28;20437;-59
2021/04/16 06:54:50;;;;;;;0.10;0.10;;;;;;;7.48;36.95;99307.56;5114530;28;20069;-59
2021/04/16 06:57:31;;;;;;;0.20;0.20;;;;;;;7.45;37.07;99307.09;5114319;28;20028;-60
2021/04/16 07:00:04;;;;;;;0.10;0.10;;;;;;;7.41;37.02;99297.66;5114284;28;20031;-59
2021/04/16 07:02:38;;;;;;;0.10;0.10;;;;;;;7.37;37.10;99289.81;5114211;28;20040;-59
2021/04/16 07:05:12;;;;;;;0.10;0.10;;;;;;;7.37;37.04;99284.38;5114190;28;20035;-59
2021/04/16 07:07:44;;;;;;;0.20;0.20;;;;;;;7.39;36.84;99295.13;5113745;28;20458;-59
2021/04/16 07:10:21;;;;;;;0.10;0.10;;;;;;;7.45;36.86;99290.72;5114300;28;20436;-58
2021/04/16 07:12:47;;;;;;;0.20;0.20;;;;;;;7.54;36.68;99317.66;5105412;28;20119;-59
2021/04/16 07:15:23;;;;;;;0.20;0.20;;;;;;;7.52;36.70;99291.59;5102238;28;20138;-58
2021/04/16 07:17:50;;;;;;;0.10;0.10;;;;;;;7.47;36.61;99305.03;5094315;28;20035;-60
2021/04/16 07:20:23;;;;;;;0.15;0.15;;;;;;;7.45;36.65;99299.78;5102038;28;20028;-60
2021/04/16 07:22:53;;;;;;;0.15;0.15;;;;;;;7.50;36.54;99304.63;5106010;28;20027;-60
2021/04/16 07:25:24;;;;;;;0.20;0.20;;;;;;;7.53;36.61;99290.56;5106878;28;20032;-60
2021/04/16 07:27:59;;;;;;;0.10;0.10;;;;;;;7.58;36.46;99298.97;5106134;28;20020;-60
2021/04/16 07:30:50;;;;;;;0.20;0.20;;;;;;;7.69;36.37;99306.59;5111873;28;20036;-60
2021/04/16 07:33:38;;;;;;;0.20;0.20;;;;;;;7.76;36.02;99311.22;5105509;28;20088;-60
2021/04/16 07:36:31;;;;;;;0.10;0.10;;;;;;;7.74;36.11;99294.22;5103171;28;20093;-59
2021/04/16 07:39:14;;;;;;;0.20;0.20;;;;;;;7.71;36.09;99295.44;5084080;28;20059;-60
2021/04/16 07:41:44;;;;;;;0.10;0.10;;;;;;;7.71;35.98;99296.31;5081891;28;20040;-59
2021/04/16 07:44:35;;;;;;;0.20;0.20;;;;;;;7.78;35.96;99296.31;5085582;28;20119;-60
2021/04/16 07:47:14;;;;;;;0.20;0.20;;;;;;;7.91;35.75;99290.06;5084062;28;20032;-58
2021/04/16 07:49:55;;;;;;;0.20;0.20;;;;;;;7.99;35.52;99302.69;5070858;28;20032;-62
2021/04/16 07:52:44;;;;;;;2.08;1.88;;;;;;;7.98;35.52;99301.00;5087331;28;20050;-60
2021/04/16 07:55:32;;;;;;;0.20;0.20;;;;;;;7.97;35.56;99300.16;5088920;28;20038;-59
2021/04/16 07:58:02;;;;;;;0.20;0.20;;;;;;;7.99;35.12;99300.78;5079878;28;20659;-60
2021/04/16 08:00:41;;;;;;;0.10;0.10;;;;;;;8.01;35.49;99298.72;5084925;28;20032;-60
2021/04/16 08:03:10;;;;;;;0.10;0.10;;;;;;;8.02;35.48;99294.06;5089180;28;20032;-60
2021/04/16 08:05:42;;;;;;;0.10;0.10;;;;;;;8.07;35.49;99303.34;5072798;28;20467;-61
2021/04/16 08:08:17;;;;;;;0.10;0.10;;;;;;;8.05;35.49;99289.06;5073005;28;20028;-60
2021/04/16 08:10:44;;;;;;;0.20;0.20;;;;;;;8.12;35.37;99296.44;5078688;28;20097;-60
2021/04/16 08:13:17;;;;;;;0.20;0.20;;;;;;;8.21;35.25;99289.69;5090836;28;20024;-59
2021/04/16 08:15:43;;;;;;;0.10;0.10;;;;;;;8.26;35.21;99284.47;5070978;28;20075;-60
2021/04/16 08:18:20;;;;;;;0.20;0.20;;;;;;;8.25;35.24;99290.97;5092414;28;20032;-60
2021/04/16 08:20:58;;;;;;;0.10;0.10;;;;;;;8.26;35.22;99289.94;5095877;28;20485;-61
2021/04/16 08:23:32;;;;;;;0.20;0.20;;;;;;;8.29;35.24;99288.66;5095345;28;20036;-60
2021/04/16 08:25:59;;;;;;;0.20;0.20;;;;;;;8.30;34.96;99291.19;5087226;28;20032;-60
2021/04/16 08:28:52;;;;;;;0.20;0.20;;;;;;;8.27;34.98;99279.81;5096366;28;20169;-64
2021/04/16 08:31:34;;;;;;;0.20;0.20;;;;;;;8.23;34.88;99293.91;5092361;28;20039;-59
2021/04/16 08:34:26;;;;;;;0.20;0.20;;;;;;;8.22;34.96;99288.66;5097793;28;20032;-60
2021/04/16 08:36:54;;;;;;;0.13;0.13;;;;;;;8.22;34.88;99285.94;5077522;28;20147;-60
2021/04/16 08:39:31;;;;;;;0.10;0.10;;;;;;;8.24;34.75;99289.28;5089785;28;20493;-61
2021/04/16 08:41:57;;;;;;;0.10;0.10;;;;;;;8.32;34.82;99293.72;5087245;28;20521;-59
2021/04/16 08:44:27;;;;;;;0.10;0.10;;;;;;;8.32;34.48;99289.09;5090903;28;20043;-59
2021/04/16 08:46:58;;;;;;;0.20;0.20;;;;;;;8.33;34.56;99292.66;5092695;28;20039;-59
2021/04/16 08:49:34;;;;;;;0.10;0.10;;;;;;;8.32;34.36;99290.97;5089538;28;20089;-59
2021/04/16 08:52:05;;;;;;;0.20;0.20;;;;;;;8.33;34.41;99300.88;5082397;28;20475;-60
2021/04/16 08:54:34;;;;;;;0.20;0.20;;;;;;;8.30;34.37;99296.66;5080121;28;20032;-60
2021/04/16 08:57:08;;;;;;;0.10;0.10;;;;;;;8.25;34.39;99285.50;5086100;28;20039;-58
2021/04/16 08:59:53;;;;;;;0.15;0.15;;;;;;;8.23;34.41;99290.34;5084779;28;20037;-59
2021/04/16 09:02:23;;;;;;;0.10;0.10;;;;;;;8.32;34.23;99289.09;5083397;28;20032;-60
2021/04/16 09:04:53;;;;;;;0.20;0.20;;;;;;;8.40;34.13;99302.56;5088733;28;20572;-60
2021/04/16 09:07:42;;;;;;;0.10;0.10;;;;;;;8.38;33.99;99293.72;5085123;28;20067;-60
2021/04/16 09:10:17;;;;;;;0.10;0.10;;;;;;;8.36;33.94;99315.00;5082234;28;20177;-59
2021/04/16 09:12:47;;;;;;;0.20;0.20;;;;;;;8.29;34.02;99300.47;5083335;28;20035;-60
2021/04/16 09:15:18;;;;;;;0.10;0.10;;;;;;;8.29;34.01;99295.00;5087106;28;20229;-59
2021/04/16 09:17:53;;;;;;;0.10;0.10;;;;;;;8.30;33.82;99298.56;5086058;28;20172;-60
2021/04/16 09:20:34;;;;;;;0.20;0.20;;;;;;;8.36;33.91;99293.09;5088919;28;20063;-60
2021/04/16 09:23:04;;;;;;;0.20;0.20;;;;;;;8.46;33.73;99297.34;5090438;28;20040;-60
2021/04/16 09:25:40;;;;;;;0.10;0.10;;;;;;;8.52;33.61;99291.03;5085698;28;20039;-60
2021/04/16 09:28:24;;;;;;;0.20;0.20;;;;;;;8.56;33.53;99293.13;5087027;28;20406;-60
2021/04/16 09:31:00;;;;;;;0.20;0.20;;;;;;;8.62;33.27;99287.88;5080435;28;20072;-60
2021/04/16 09:33:36;;;;;;;0.10;0.10;;;;;;;8.65;33.24;99280.09;5090436;28;20166;-61
2021/04/16 09:36:06;;;;;;;0.10;0.10;;;;;;;8.70;33.18;99299.47;5077216;28;20032;-60
2021/04/16 09:38:56;;;;;;;0.20;0.20;;;;;;;8.72;33.07;99291.06;5108422;28;20409;-59
2021/04/16 09:41:23;;;;;;;0.20;0.20;;;;;;;8.74;32.97;99292.50;5108528;28;20066;-60
2021/04/16 09:43:53;;;;;;;0.10;0.10;;;;;;;8.81;32.79;99302.63;5094536;28;20031;-61
2021/04/16 09:46:31;;;;;;;0.10;0.10;;;;;;;8.86;32.77;99283.66;5109068;28;20053;-59
2021/04/16 09:49:05;;;;;;;0.20;0.20;;;;;;;8.83;32.78;99300.50;5105075;28;20473;-59
2021/04/16 09:51:45;;;;;;;0.20;0.20;;;;;;;8.77;32.85;99289.38;5104570;28;20035;-60
2021/04/16 09:54:20;;;;;;;0.10;0.10;;;;;;;8.76;32.84;99298.63;5105141;28;20142;-61
2021/04/16 09:57:01;;;;;;;0.20;0.20;;;;;;;8.76;32.73;99292.31;5110923;28;20043;-60
2021/04/16 09:59:38;;;;;;;0.20;0.20;;;;;;;8.75;32.73;99285.97;5106664;28;20498;-60
2021/04/16 10:02:13;;;;;;;0.17;0.17;;;;;;;8.79;32.67;99291.03;5107225;28;20489;-59
2021/04/16 10:04:51;;;;;;;0.17;0.17;;;;;;;8.81;32.49;99313.59;5085375;28;20654;-59
2021/04/16 10:07:21;;;;;;;0.10;0.10;;;;;;;8.77;32.41;99294.84;5106469;28;20093;-60
2021/04/16 10:09:47;;;;;;;0.10;0.10;;;;;;;8.74;32.32;99299.88;5111503;28;20019;-60
2021/04/16 10:12:29;;;;;;;0.10;0.10;;;;;;;8.74;32.37;99300.72;5109398;28;20036;-60
2021/04/16 10:14:55;;;;;;;0.10;0.10;;;;;;;8.73;32.39;99292.72;5111137;28;20039;-59
2021/04/16 10:17:25;;;;;;;0.20;0.20;;;;;;;8.74;32.15;99287.03;5110417;28;20480;-61
2021/04/16 10:20:17;;;;;;;0.10;0.10;;;;;;;8.82;32.13;99296.06;5100550;28;20157;-60
2021/04/16 10:22:44;;;;;;;0.13;0.13;;;;;;;8.82;32.00;99296.06;5110810;28;20105;-60
2021/04/16 11:10:56;;;;;;;0.10;0.10;;;;;;;9.21;31.17;99265.03;5008143;28;20041;-59
2021/04/16 12:39:37;;;;;;;0.10;0.10;;;;;;;9.46;29.99;99247.91;5098495;28;20031;-58
2021/04/16 12:42:06;;;;;;;0.10;0.10;;;;;;;9.41;30.13;99245.81;5099682;28;20036;-59
2021/04/16 12:44:47;;;;;;;0.10;0.10;;;;;;;9.39;29.87;99242.47;5096534;28;20016;-58
2021/04/16 12:47:25;;;;;;;0.10;0.10;;;;;;;9.34;30.23;99235.94;5097008;28;20579;-61
2021/04/16 12:49:52;;;;;;;0.10;0.10;;;;;;;9.27;30.18;99233.19;5092617;28;20074;-57
2021/04/16 12:52:22;;;;;;;0.10;0.10;;;;;;;9.29;30.08;99231.09;5081779;28;20508;-58
2021/04/16 12:54:51;;;;;;;0.10;0.10;;;;;;;9.32;30.20;99243.50;5090331;28;20031;-58
2021/04/16 12:57:22;;;;;;;0.10;0.10;;;;;;;9.33;30.12;99234.25;5101460;28;20078;-59
2021/04/16 12:59:50;;;;;;;0.10;0.10;;;;;;;9.32;30.08;99235.28;5099008;28;20060;-61
2021/04/16 13:02:34;;;;;;;0.10;0.10;;;;;;;9.32;29.98;99236.16;5093415;28;20039;-65
2021/04/16 13:05:07;;;;;;;0.20;0.20;;;;;;;9.34;30.00;99234.03;5101948;28;20423;-61
2021/04/16 13:07:33;;;;;;;0.10;0.10;;;;;;;9.34;29.87;99234.03;5101177;28;20067;-61
2021/04/16 13:10:01;;;;;;;0.20;0.20;;;;;;;9.30;29.92;99227.28;5104876;28;20024;-59
2021/04/16 13:12:27;;;;;;;0.20;0.20;;;;;;;9.27;29.97;99236.78;5075368;28;20044;-64
2021/04/16 13:14:52;;;;;;;0.10;0.10;;;;;;;9.24;29.97;99241.84;5115577;27;20024;-62
2021/04/16 13:17:23;;;;;;;0.20;0.20;;;;;;;9.21;29.95;99239.56;5104615;28;20028;-61
2021/04/16 13:19:50;;;;;;;0.20;0.20;;;;;;;9.15;29.90;99234.94;5101060;28;20024;-62
2021/04/16 13:22:19;;;;;;;0.10;0.10;;;;;;;9.09;29.85;99234.72;5096580;28;20592;-61
2021/04/16 13:24:47;;;;;;;0.13;0.13;;;;;;;9.07;29.98;99241.50;5104113;28;20028;-65
2021/04/16 13:27:16;;;;;;;0.10;0.10;;;;;;;9.03;30.01;99230.13;5103873;28;20107;-60
2021/04/16 13:29:42;;;;;;;0.10;0.10;;;;;;;8.98;29.95;99235.41;5093499;28;20499;-61
2021/04/16 13:32:12;;;;;;;0.15;0.15;;;;;;;8.93;29.91;99233.28;5101678;28;20034;-61
2021/04/16 13:34:41;;;;;;;0.10;0.10;;;;;;;8.92;29.88;99236.25;5087627;28;20031;-62
2021/04/16 13:37:08;;;;;;;0.10;0.10;;;;;;;8.88;30.08;99237.75;5093416;28;20045;-64
2021/04/16 13:39:34;;;;;;;0.10;0.10;;;;;;;8.86;29.92;99237.09;5081823;28;20036;-62
2021/04/16 13:42:00;;;;;;;11.30;0.52;;;;;;;8.82;29.91;99241.31;5099070;28;20031;-61
2021/04/16 13:44:26;;;;;;;0.20;0.20;;;;;;;8.77;29.76;99234.59;5095088;28;20033;-61
2021/04/16 13:46:52;;;;;;;0.20;0.20;;;;;;;8.73;30.05;99233.34;5100150;28;20350;-61
2021/04/16 13:49:21;;;;;;;0.20;0.20;;;;;;;8.71;30.05;99229.94;5082171;28;20016;-62
2021/04/16 13:51:48;;;;;;;0.10;0.10;;;;;;;8.72;29.79;99236.28;5098674;28;20052;-65
2021/04/16 13:54:14;;;;;;;0.10;0.10;;;;;;;8.71;29.85;99231.84;5098149;28;20046;-63
2021/04/16 13:56:40;;;;;;;0.10;0.10;;;;;;;8.66;29.77;99224.28;5086463;28;20015;-60
2021/04/16 13:59:09;;;;;;;0.10;0.10;;;;;;;8.62;29.81;99222.19;5103173;28;20024;-61
2021/04/16 14:01:35;;;;;;;0.57;0.52;;;;;;;8.58;29.82;99224.50;5061491;28;20571;-62
2021/04/16 14:04:04;;;;;;;0.20;0.20;;;;;;;8.57;29.85;99231.03;5103247;28;20042;-63
2021/04/16 14:06:35;;;;;;;0.10;0.10;;;;;;;8.53;29.74;99221.56;5085140;28;20024;-63